LFMV/AVN METAR and TAF weather

Enter ICAO airport designator
Station Type Date Time Source
LFMV METAR 2021/09/16 11:30 UTC NOAA

LFMV 161130Z AUTO 32004KT 9999 BKN009/// BKN036/// OVC120/// ///CB 21/19 Q1016 TEMPO VRB15KT 2000 TSRA BKN004 SCT020TCU


Station Type Date Time Source
LFMV Decoded METAR 2021/09/16 11:30 UTC NOAA

Station name not available
Sep 16, 2021 - 07:30 AM EDT / 2021.09.16 1130 UTC
Wind: from the NW (320 degrees) at 5 MPH (4 KT):0
Visibility: greater than 7 mile(s):0
Sky conditions: overcast
Weather: Cumulonimbus clouds, towering cumulus clouds observed
Temperature: 69 F (21 C)
Dew Point: 66 F (19 C)
Relative Humidity: 88%
Pressure (altimeter): 30.00 in. Hg (1016 hPa)
ob: LFMV 161130Z AUTO 32004KT 9999 BKN009/// BKN036/// OVC120/// ///CB 21/19 Q1016 TEMPO VRB15KT 2000 TSRA BKN004 SCT020TCU
cycle: 11

Station Type Date Time Source
LFMV TAF 2021/09/16 11:00 UTC NOAA

TAF
AMD LFMV 161148Z 1611/1709 VRB03KT 9999 SCT050 BKN160
TEMPO 1611/1618 4000 SHRA BKN010 SCT020TCU PROB40
TEMPO 1611/1618 VRB15KT 2000 TSRA BKN004 SCT015CB PROB30
TEMPO 1619/1623 2000 BR
BECMG 1621/1623 33010KT

Example: see airport list